Details From UATT - AKTYUBINSK
To UARR - URALSK
Flight Number -
Tags generated
Created
Modified
Stats Distance 222 nm / 412 km
Max Altitude 28,700 ft / 8,748 m
Waypoints 5
Social Downloads 0
Likes 0
Share VATSIM

Download

Looking for another format? Having issues loading an existing format? Contact us
Advertisement - Login to hide

Notes

Basic altitude profile: - Ascent Rate: 2500ft/min - Ascent Speed: 250kts - Cruise Altitude: 35000ft - Cruise Speed: 420kts - Descent Rate: 1500ft/min - Descent Speed: 250kts Options: - Use NATs: yes - Use PACOTS: yes - Use low airways: yes - Use high airways: yes

Route

UATT MAGOL G3 URL UARR

ID Type Via Altitude Latitude Longitude Leg Dist Tot Dist Heading (true) Name
O UATT APT - 0 ft / 0 m 50.24562˚ 57.20712˚ - 0 nm - AKTYUBINSK
MAGOL FIX - 28,700 ft / 8,748 m 50.62500˚ 55.09833˚ 83 nm 83 nm 287° / 285° -
IBLIG FIX G3 (AWY-LO) 9,200 ft / 2,804 m 50.99556˚ 52.65694˚ 95 nm 179 nm 284° / 283° -
URL VOR G3 (AWY-LO) 3,900 ft / 1,189 m 51.14583˚ 51.54083˚ 43 nm 222 nm 283° / 282° URALSK VOR-DME
O UARR APT - 0 ft / 0 m 51.15088˚ 51.54146˚ 0 nm 222 nm 4° / 4° URALSK

Altitude Profile

Advertisement - Login to hide

Weather


0- 5 10 15 20 25 30 35+ Temperature / ° C

Clouds and Precipitation
Forecast for 2017-12-11 12:00 UTC. Updated 42 minutes ago

Ground ~20,000 ft ~40,000 ft Winds

UATT

Details ICAO UATT (AKX)
Name AKTYUBINSK
Region Kazakhstan and Kyrgyzstan
Timezone Asia/Aqtobe (UTC+5.0)
Stats Elevation 738 ft / 225 m (AMSL)
Location 50.245624° 57.207116°
Runways 1
Magnetic Variation 10.591° E

METAR

UATT 111000Z 30003MPS 9999 SCT007 M11/M12 Q1030 R31/490150 NOSIG RMK QFE752/1003

Decode

TAF

TAF UATT 110500Z 1106/1206 27005MPS 3000 -SN BR BKN005 BKN010 TXM08/1111Z TNM15/1203Z TEMPO 1106/1108 1500 BKN003 TEMPO 1113/1206 0500 FZFG VV002

Decode

Departure Runways

ID Width Length Bearing (true) Bearing (mag) Surface Threshold Offset Overrun Length
13 196 ft / 60 m 10,145 ft / 3,092 m 135.21° 124.62° Concrete 0 ft / 0 m 0 ft / 0 m
31 196 ft / 60 m 10,145 ft / 3,092 m 315.24° 304.65° Concrete 0 ft / 0 m 0 ft / 0 m

UARR

Details ICAO UARR (URA)
Name URALSK
Region Kazakhstan and Kyrgyzstan
Timezone Asia/Oral (UTC+5.0)
Stats Elevation 125 ft / 38 m (AMSL)
Location 51.150880° 51.541458°
Runways 1
Magnetic Variation 10.921° E

METAR

UARR 111000Z 16004MPS 9999 -SN OVC032 M02/M04 Q1030 R22/550340 NOSIG RMK QFE768/1025

Decode

TAF

Not found

Destination Runways

ID Width Length Bearing (true) Bearing (mag) Surface Threshold Offset Overrun Length
04 138 ft / 42 m 7,858 ft / 2,395 m 51.88° 40.96° Concrete 0 ft / 0 m 0 ft / 0 m
22 138 ft / 42 m 7,858 ft / 2,395 m 231.90° 220.98° Concrete 0 ft / 0 m 0 ft / 0 m

Approach Navaids

Runway Type Ident Frequency Range Bearing (true) Bearing (mag) Slope Elevation
22 Localiser IUR 109.70 MHz 18 nm / 33 km 230.24° 219.32° - 125 ft / 38 m (AMSL)
22 Glidescope IUR 109.70 MHz 10 nm / 19 km 231.89° 220.97° 2.40° 125 ft / 38 m (AMSL)

Popular Alternatives